Airfield :
LOGIN :

Register | Disclaimer

   EN    FR    IT 

 










Legend :    VFR   Marginal VFR   IFR   Intensive IFR   Very Intensive IFR
Visi :
Ceiling :
>= 8 km
>= 3000ft
5 to 8 km
1000 to 3000 ft
1500m to 5 km
500 to 1000 ft
800 to 1500m
200 to 500 ft
< 800m
< 200 ft
Symbols :   Thunderstorms  Fog  Heavy snow  Heavy precipitations  Wind > 20 kt
SIGMETs :     Misc.  Thunderstorms  Icing  Turbulence  Mountain Waves  Volcanic Ashes






- Airport Elevation : 1487 ft
- IATA code : MUC


EDDM - München Franz Josef Strauss

CURRENT METAR :
  • 181750Z AUTO 10004KT CAVOK 28/16 Q1013 NOSIG

EXPIRED METARs :
  • 181720Z AUTO 12005KT CAVOK 28/16 Q1013 NOSIG
  • 181650Z AUTO 12006KT CAVOK 28/16 Q1013 NOSIG
  • 181620Z AUTO 11007KT CAVOK 29/15 Q1013 NOSIG
  • 181550Z AUTO 11007KT CAVOK 29/14 Q1013 NOSIG
  • 181520Z AUTO 11008KT 070V130 CAVOK 29/15 Q1014 NOSIG
  • 181450Z AUTO 09007KT CAVOK 28/16 Q1014 NOSIG
  • 181420Z AUTO 11007KT 060V150 CAVOK 29/16 Q1014 NOSIG
  • 181350Z AUTO 11007KT 030V150 CAVOK 28/15 Q1015 NOSIG
  • 181320Z AUTO 09004KT 350V160 CAVOK 28/14 Q1015 NOSIG

TAF TAF EDDM
Valid from the 18 at 18:00 until the 20 at 00:00 UTC


181700Z 1818/1924 09006KT CAVOK
BECMG 1820/1823 23005KT
BECMG 1910/1912 30008KT
PROB30
TEMPO 1919/1924 30015G25KT SHRA SCT030 BKN055CB
BECMG 1920/1922 24003KT



MET'MAP, your aeronautical weather chart ! - Copyright ORBIFLY December 2007 - Disclaimer

ORBIFLY MET'MAP TEAM :

Programming & Development : Alexandra Zaïnal
Original concept : Baudouin d'Aumeries
Technical & hardware support : Manuel Goepfert
Assistance : Marc-Olivier Méhu




SOURCES & CREDITS :

   NOAA